This is the latest recevied weather packets stored in our database for station/object WD9GET. If no packets are shown the sender has not sent any weather packets the latest 10 day(s).
| Time | Temp. | Humidity | Pressure | Rain* | Wind** | Luminosity | Snow |
|---|---|---|---|---|---|---|---|
| 1777658588 | 17.78° C | 98% | 1009.5 hPa | 0 mm | - | 12 W/m² | - |
| 1777658527 | 17.78° C | 98% | 1009.5 hPa | 0 mm | - | 11 W/m² | - |
| 1777658466 | 17.78° C | 98% | 1009.4 hPa | 0.25 mm | - | 12 W/m² | - |
| 1777658408 | 17.78° C | 98% | 1009.4 hPa | 0.25 mm | - | 12 W/m² | - |
| 1777658351 | 17.78° C | 98% | 1009.4 hPa | 0.25 mm | - | 12 W/m² | - |
| 1777658287 | 17.78° C | 98% | 1009.1 hPa | 0.51 mm | - | 16 W/m² | - |
| 1777658213 | 17.78° C | 98% | 1009.1 hPa | 0.51 mm | - | 16 W/m² | - |
| 1777658205 | 17.78° C | 98% | 1009.1 hPa | 0.51 mm | - | 16 W/m² | - |
| 1777658084 | 17.78° C | 98% | 1009.1 hPa | 0.76 mm | - | 20 W/m² | - |
| 1777658068 | 17.78° C | 98% | 1009 hPa | 1.02 mm | - | 26 W/m² | - |
| 1777657958 | 17.78° C | 98% | 1008.9 hPa | 1.78 mm | - | 46 W/m² | - |
| 1777657922 | 17.78° C | 98% | 1008.9 hPa | 2.79 mm | - | 46 W/m² | - |
| 1777657832 | 17.78° C | 98% | 1008.8 hPa | 4.06 mm | - | 55 W/m² | - |
| 1777657782 | 17.78° C | 98% | 1008.8 hPa | 4.57 mm | - | 58 W/m² | - |
| 1777657706 | 17.78° C | 98% | 1008.6 hPa | 5.08 mm | - | 57 W/m² | - |
| 1777657646 | 17.78° C | 98% | 1008.6 hPa | 5.08 mm | - | 57 W/m² | - |
| 1777657580 | 17.78° C | 98% | 1008.6 hPa | 5.08 mm | - | 56 W/m² | - |
| 1777657520 | 17.78° C | 98% | 1008.7 hPa | 5.33 mm | - | 59 W/m² | - |
| 1777657454 | 17.78° C | 98% | 1008.7 hPa | 5.59 mm | - | 61 W/m² | - |
| 1777657394 | 17.78° C | 98% | 1008.7 hPa | 5.59 mm | - | 62 W/m² | - |
| 1777657334 | 17.78° C | 98% | 1008.9 hPa | 5.59 mm | - | 54 W/m² | - |
| 1777657272 | 17.78° C | 98% | 1008.9 hPa | 5.84 mm | - | 54 W/m² | - |
| 1777657211 | 17.78° C | 98% | 1008.9 hPa | 5.84 mm | - | 54 W/m² | - |
| 1777657147 | 17.78° C | 98% | 1009.1 hPa | 6.1 mm | - | 39 W/m² | - |
| 1777657082 | 17.78° C | 98% | 1009.1 hPa | 6.6 mm | - | 39 W/m² | - |
* Rain latest hour (hover to see other rain measurements)
** Current wind speed in m/s (hover to see current wind gust speed)